createdAt,value
2023-05-09T00:00:25.111Z,3.00
2023-05-09T00:03:17.786Z,3.10
2023-05-09T00:05:52.266Z,2.70
2023-05-09T00:08:27.551Z,3.00
2023-05-09T00:11:03.811Z,3.00
2023-05-09T00:13:37.981Z,2.70
2023-05-09T00:16:13.932Z,3.00
2023-05-09T00:18:49.387Z,2.80
2023-05-09T00:21:23.342Z,3.10
2023-05-09T00:23:57.353Z,3.10
2023-05-09T00:26:31.325Z,3.00
2023-05-09T00:29:05.280Z,3.00
2023-05-09T00:31:39.116Z,3.10
2023-05-09T00:34:13.155Z,3.10
2023-05-09T00:36:46.910Z,3.10
2023-05-09T00:39:23.321Z,3.40
2023-05-09T00:41:58.533Z,3.30
2023-05-09T00:44:32.320Z,3.20
2023-05-09T00:47:09.707Z,2.90
2023-05-09T00:49:44.764Z,3.50
2023-05-09T00:52:23.380Z,3.10
2023-05-09T00:54:58.909Z,3.00
2023-05-09T00:57:34.559Z,3.30
2023-05-09T01:00:13.330Z,3.40
2023-05-09T01:02:53.554Z,3.20
2023-05-09T01:05:35.222Z,3.20
2023-05-09T01:08:19.471Z,3.20
2023-05-09T01:11:01.120Z,3.30
2023-05-09T01:13:43.480Z,3.70
2023-05-09T01:16:28.138Z,3.30
2023-05-09T01:19:18.144Z,3.50
2023-05-09T01:21:55.077Z,3.70
2023-05-09T01:24:57.429Z,3.40
2023-05-09T01:27:48.275Z,3.70
2023-05-09T01:30:23.316Z,3.20
2023-05-09T01:33:02.491Z,3.40
2023-05-09T01:35:41.052Z,3.50
2023-05-09T01:38:22.002Z,3.60
2023-05-09T01:40:59.930Z,3.60
2023-05-09T01:43:36.152Z,3.50
2023-05-09T01:46:11.874Z,3.50
2023-05-09T01:48:47.805Z,3.50
2023-05-09T01:51:24.275Z,3.70
2023-05-09T01:53:59.623Z,3.70
2023-05-09T01:56:36.609Z,3.70
2023-05-09T01:59:16.259Z,3.70
2023-05-09T02:01:52.736Z,3.80
2023-05-09T02:04:27.125Z,3.50
2023-05-09T02:07:01.855Z,3.70
2023-05-09T02:09:36.078Z,3.70
2023-05-09T02:12:11.060Z,3.70
2023-05-09T02:14:46.094Z,3.50
2023-05-09T02:17:19.950Z,3.90
2023-05-09T02:19:54.172Z,3.90
2023-05-09T02:22:28.695Z,3.70
2023-05-09T02:25:05.002Z,3.60
2023-05-09T02:27:41.219Z,3.50
2023-05-09T02:30:23.638Z,3.90
2023-05-09T02:33:02.937Z,3.90
2023-05-09T02:35:37.686Z,4.00
2023-05-09T02:38:12.823Z,4.10
2023-05-09T02:40:49.806Z,3.90
2023-05-09T02:43:24.989Z,3.90
2023-05-09T02:45:58.719Z,4.10
2023-05-09T02:48:32.763Z,4.00
2023-05-09T02:51:07.029Z,4.00
2023-05-09T02:53:40.787Z,3.90
2023-05-09T02:56:16.857Z,4.10
2023-05-09T02:58:51.594Z,4.20
2023-05-09T03:01:25.648Z,4.30
2023-05-09T03:04:00.780Z,3.90
2023-05-09T03:06:37.144Z,3.80
2023-05-09T03:09:10.899Z,4.00
2023-05-09T03:11:44.558Z,4.10
2023-05-09T03:14:18.415Z,4.00
2023-05-09T03:16:54.123Z,4.00
2023-05-09T03:19:29.254Z,4.10
2023-05-09T03:22:04.406Z,4.00
2023-05-09T03:24:40.257Z,4.10
2023-05-09T03:27:15.964Z,4.30
2023-05-09T03:29:52.475Z,4.20
2023-05-09T03:32:26.725Z,4.20
2023-05-09T03:35:00.610Z,4.20
2023-05-09T03:37:35.793Z,4.20
2023-05-09T03:40:13.138Z,4.30
2023-05-09T03:42:47.247Z,4.50
2023-05-09T03:45:23.044Z,4.20
2023-05-09T03:47:57.898Z,4.30
2023-05-09T03:50:32.037Z,4.50
2023-05-09T03:53:06.870Z,4.40
2023-05-09T03:55:43.137Z,4.40
2023-05-09T03:58:19.343Z,4.70
2023-05-09T04:00:54.031Z,4.60
2023-05-09T04:03:30.630Z,4.50
2023-05-09T04:06:09.112Z,4.70
2023-05-09T04:08:43.024Z,4.60
2023-05-09T04:11:18.264Z,4.70
2023-05-09T04:13:52.581Z,4.60
2023-05-09T04:16:26.613Z,4.50
2023-05-09T04:19:00.334Z,4.90
2023-05-09T04:21:35.610Z,4.70
2023-05-09T04:24:10.757Z,4.90
2023-05-09T04:26:46.312Z,4.70
2023-05-09T04:29:22.589Z,4.70
2023-05-09T04:31:56.561Z,4.80
2023-05-09T04:34:30.781Z,4.90
2023-05-09T04:37:04.629Z,4.80
2023-05-09T04:39:40.945Z,4.50
2023-05-09T04:42:14.817Z,4.90
2023-05-09T04:44:52.196Z,4.50
2023-05-09T04:47:26.182Z,4.60
2023-05-09T04:50:00.183Z,4.60
2023-05-09T04:52:35.306Z,4.50
2023-05-09T04:55:11.016Z,4.40
2023-05-09T04:57:45.018Z,5.10
2023-05-09T05:00:21.477Z,4.70
2023-05-09T05:02:55.464Z,4.80
2023-05-09T05:05:35.237Z,4.80
2023-05-09T05:08:11.257Z,4.40
2023-05-09T05:10:49.769Z,4.50
2023-05-09T05:13:23.835Z,4.90
2023-05-09T05:15:58.653Z,4.70
2023-05-09T05:18:32.570Z,4.40
2023-05-09T05:21:10.065Z,4.80
2023-05-09T05:23:43.775Z,4.80
2023-05-09T05:26:19.269Z,4.90
2023-05-09T05:28:56.653Z,4.90
2023-05-09T05:31:31.040Z,4.60
2023-05-09T05:34:05.296Z,4.50
2023-05-09T05:36:39.263Z,4.70
2023-05-09T05:39:18.331Z,4.40
2023-05-09T05:41:53.007Z,4.80
2023-05-09T05:44:26.717Z,4.80
2023-05-09T05:47:00.417Z,4.80
2023-05-09T05:49:36.373Z,4.80
2023-05-09T05:52:10.381Z,4.80
2023-05-09T05:54:45.062Z,5.00
2023-05-09T05:57:19.179Z,4.90
2023-05-09T05:59:59.179Z,4.90
2023-05-09T06:02:35.152Z,5.30
2023-05-09T06:05:12.160Z,4.90
2023-05-09T06:07:45.972Z,4.90
2023-05-09T06:10:19.733Z,4.70
2023-05-09T06:12:54.893Z,5.00
2023-05-09T06:15:28.736Z,4.90
2023-05-09T06:18:05.770Z,5.00
2023-05-09T06:20:41.076Z,4.60
2023-05-09T06:23:22.391Z,4.70
2023-05-09T06:25:57.258Z,4.60
2023-05-09T06:28:31.138Z,4.80
2023-05-09T06:31:05.112Z,5.00
2023-05-09T06:33:38.890Z,4.20
2023-05-09T06:36:16.898Z,4.20
2023-05-09T06:38:50.500Z,4.20
2023-05-09T06:41:26.264Z,4.30
2023-05-09T06:44:02.571Z,4.20
2023-05-09T06:46:37.705Z,4.20
2023-05-09T06:49:14.038Z,4.10
2023-05-09T06:51:47.932Z,3.90
2023-05-09T06:54:23.191Z,4.00
2023-05-09T06:56:57.378Z,4.20
2023-05-09T06:59:33.343Z,3.90
2023-05-09T07:02:07.105Z,4.10
2023-05-09T07:04:40.726Z,3.70
2023-05-09T07:07:16.420Z,3.70
2023-05-09T07:09:53.007Z,3.80
2023-05-09T07:12:31.650Z,3.50
2023-05-09T07:15:07.862Z,3.40
2023-05-09T07:17:44.107Z,3.70
2023-05-09T07:20:19.363Z,3.80
2023-05-09T07:22:52.692Z,3.70
2023-05-09T07:25:26.014Z,3.50
2023-05-09T07:27:59.367Z,3.70
2023-05-09T07:30:32.913Z,3.40
2023-05-09T07:33:06.842Z,3.60
2023-05-09T07:35:39.987Z,3.80
2023-05-09T07:38:13.061Z,3.90
2023-05-09T07:40:46.147Z,3.80
2023-05-09T07:43:19.245Z,4.00
2023-05-09T07:45:52.480Z,4.20
2023-05-09T07:48:27.572Z,4.10
2023-05-09T07:51:00.948Z,4.20
2023-05-09T07:53:34.144Z,4.20
2023-05-09T07:56:08.127Z,3.70
2023-05-09T07:58:41.714Z,4.00
2023-05-09T08:01:15.332Z,3.90
2023-05-09T08:03:48.603Z,3.70
2023-05-09T08:06:21.976Z,3.30
2023-05-09T08:08:55.578Z,3.20
2023-05-09T08:11:29.095Z,3.60
2023-05-09T08:14:02.375Z,3.70
2023-05-09T08:16:35.666Z,3.70
2023-05-09T08:19:10.489Z,3.30
2023-05-09T08:21:44.006Z,3.50
2023-05-09T08:24:17.461Z,3.30
2023-05-09T08:26:50.958Z,3.10
2023-05-09T08:29:24.441Z,3.50
2023-05-09T08:31:58.108Z,2.90
2023-05-09T08:34:34.545Z,3.30
2023-05-09T08:37:08.868Z,2.90
2023-05-09T08:39:42.263Z,2.90
2023-05-09T08:42:20.665Z,2.90
2023-05-09T08:44:53.894Z,3.00
2023-05-09T08:47:28.662Z,2.90
2023-05-09T08:50:03.070Z,2.90
2023-05-09T08:52:37.163Z,2.70
2023-05-09T08:55:11.198Z,2.70
2023-05-09T08:57:46.545Z,2.80
2023-05-09T09:00:21.622Z,2.80
2023-05-09T09:02:55.459Z,2.70
2023-05-09T09:05:41.183Z,2.80
2023-05-09T09:08:16.010Z,2.40
2023-05-09T09:10:49.598Z,2.50
2023-05-09T09:13:24.500Z,2.60
2023-05-09T09:16:00.537Z,2.50
2023-05-09T09:18:36.284Z,2.10
2023-05-09T09:21:12.410Z,2.50
2023-05-09T09:23:49.791Z,2.60
2023-05-09T09:26:23.018Z,2.40
2023-05-09T09:28:57.141Z,2.50
2023-05-09T09:31:34.845Z,2.30
2023-05-09T09:34:08.041Z,2.20
2023-05-09T09:36:41.075Z,2.50
2023-05-09T09:39:17.498Z,2.20
2023-05-09T09:41:51.095Z,2.20
2023-05-09T09:44:27.416Z,2.50
2023-05-09T09:47:01.093Z,2.60
2023-05-09T09:49:34.696Z,2.30
2023-05-09T09:52:08.249Z,2.40
2023-05-09T09:54:42.693Z,2.40
2023-05-09T09:57:37.234Z,2.50
2023-05-09T10:00:14.181Z,2.20
2023-05-09T10:02:56.916Z,2.40
2023-05-09T10:05:34.502Z,2.30
2023-05-09T10:08:09.820Z,2.30
2023-05-09T10:10:43.325Z,2.30
2023-05-09T10:13:17.729Z,2.20
2023-05-09T10:15:53.854Z,2.30
2023-05-09T10:18:32.072Z,2.20
2023-05-09T10:21:06.420Z,2.20
2023-05-09T10:23:47.611Z,2.20
2023-05-09T10:26:27.744Z,2.00
2023-05-09T10:29:03.975Z,1.90
2023-05-09T10:31:42.032Z,2.20
2023-05-09T10:34:16.910Z,2.00
2023-05-09T10:36:51.535Z,2.00
2023-05-09T10:39:27.241Z,2.00
2023-05-09T10:42:02.635Z,2.10
2023-05-09T10:44:37.528Z,2.00
2023-05-09T10:47:13.338Z,1.70
2023-05-09T10:49:47.456Z,2.00
2023-05-09T10:52:24.103Z,1.90
2023-05-09T10:55:06.768Z,1.90
2023-05-09T10:57:43.591Z,2.00
2023-05-09T11:00:27.331Z,1.90
2023-05-09T11:03:19.373Z,1.80
2023-05-09T11:05:56.280Z,2.10
2023-05-09T11:08:33.299Z,1.80
2023-05-09T11:11:11.930Z,1.80
2023-05-09T11:13:55.120Z,2.00
2023-05-09T11:16:30.861Z,1.80
2023-05-09T11:19:06.146Z,2.00
2023-05-09T11:21:41.614Z,1.80
2023-05-09T11:24:24.919Z,1.90
2023-05-09T11:26:58.721Z,1.90
2023-05-09T11:29:32.548Z,1.70
2023-05-09T11:32:16.969Z,1.80
2023-05-09T11:34:52.171Z,1.80
2023-05-09T11:37:27.360Z,1.80
2023-05-09T11:40:04.968Z,1.90
2023-05-09T11:42:39.075Z,1.80
2023-05-09T11:45:14.592Z,1.90
2023-05-09T11:47:50.468Z,1.80
2023-05-09T11:50:24.668Z,1.80
2023-05-09T11:52:58.665Z,1.90
2023-05-09T11:55:33.468Z,1.80
2023-05-09T11:58:10.321Z,1.90
2023-05-09T12:00:50.307Z,1.80
2023-05-09T12:03:24.550Z,1.80
2023-05-09T12:05:59.096Z,1.80
2023-05-09T12:08:33.111Z,1.70
2023-05-09T12:11:13.821Z,1.60
2023-05-09T12:13:52.759Z,1.80
2023-05-09T12:16:26.061Z,1.80
2023-05-09T12:18:59.374Z,1.70
2023-05-09T12:21:33.337Z,1.70
2023-05-09T12:24:07.568Z,1.90
2023-05-09T12:26:41.642Z,1.80
2023-05-09T12:29:16.106Z,1.60
2023-05-09T12:31:51.175Z,1.80
2023-05-09T12:34:25.019Z,1.70
2023-05-09T12:37:00.192Z,1.70
2023-05-09T12:39:33.847Z,1.80
2023-05-09T12:42:14.600Z,1.80
2023-05-09T12:44:52.216Z,1.60
2023-05-09T12:47:30.166Z,1.70
2023-05-09T12:50:05.403Z,1.70
2023-05-09T12:52:50.069Z,1.50
2023-05-09T12:55:27.962Z,1.70
2023-05-09T12:58:06.079Z,1.70
2023-05-09T13:00:47.974Z,1.70
2023-05-09T13:03:31.310Z,1.70
2023-05-09T13:06:07.081Z,2.00
2023-05-09T13:08:40.586Z,1.80
2023-05-09T13:11:17.418Z,1.80
2023-05-09T13:13:50.762Z,1.80
2023-05-09T13:16:24.218Z,1.70
2023-05-09T13:18:57.827Z,1.70
2023-05-09T13:21:31.369Z,1.60
2023-05-09T13:24:05.480Z,1.50
2023-05-09T13:26:39.036Z,1.70
2023-05-09T13:29:12.750Z,1.70
2023-05-09T13:31:46.088Z,1.40
2023-05-09T13:34:19.480Z,1.50
2023-05-09T13:36:53.463Z,1.50
2023-05-09T13:39:26.956Z,1.80
2023-05-09T13:42:01.223Z,1.50
2023-05-09T13:44:34.850Z,1.40
2023-05-09T13:47:08.752Z,1.50
2023-05-09T13:49:42.433Z,1.70
2023-05-09T13:52:16.916Z,1.50
2023-05-09T13:54:50.359Z,1.60
2023-05-09T13:57:23.859Z,1.40
2023-05-09T13:59:57.359Z,1.40
2023-05-09T14:02:30.780Z,1.50
2023-05-09T14:05:04.565Z,1.40
2023-05-09T14:07:38.273Z,1.50
2023-05-09T14:10:14.673Z,1.40
2023-05-09T14:12:49.492Z,1.50
2023-05-09T14:15:23.224Z,1.60
2023-05-09T14:17:57.191Z,1.50
2023-05-09T14:20:30.908Z,1.70
2023-05-09T14:23:04.357Z,2.10
2023-05-09T14:25:38.035Z,2.10
2023-05-09T14:28:12.119Z,1.60
2023-05-09T14:30:45.880Z,1.50
2023-05-09T14:33:19.576Z,1.70
2023-05-09T14:35:54.753Z,2.00
2023-05-09T14:38:28.219Z,1.70
2023-05-09T14:41:02.639Z,1.80
2023-05-09T14:43:36.032Z,2.00
2023-05-09T14:46:09.448Z,1.80
2023-05-09T14:48:44.505Z,1.90
2023-05-09T14:51:18.648Z,1.90
2023-05-09T14:53:55.418Z,2.00
2023-05-09T14:56:29.836Z,1.90
2023-05-09T14:59:04.413Z,2.10
2023-05-09T15:01:39.183Z,1.90
2023-05-09T15:04:13.250Z,2.00
2023-05-09T15:06:48.205Z,1.90
2023-05-09T15:09:22.637Z,1.70
2023-05-09T15:11:57.042Z,1.80
2023-05-09T15:14:30.510Z,2.00
2023-05-09T15:17:04.425Z,1.70
2023-05-09T15:19:38.264Z,1.80
2023-05-09T15:22:12.366Z,1.90
2023-05-09T15:24:47.258Z,1.80
2023-05-09T15:27:20.647Z,1.70
2023-05-09T15:29:55.843Z,1.70
2023-05-09T15:32:29.558Z,2.00
2023-05-09T15:35:02.994Z,1.80
2023-05-09T15:37:36.454Z,1.70
2023-05-09T15:40:12.159Z,1.80
2023-05-09T15:42:48.287Z,1.60
2023-05-09T15:45:22.323Z,1.90
2023-05-09T15:47:55.711Z,1.80
2023-05-09T15:50:29.429Z,1.90
2023-05-09T15:53:02.876Z,1.80
2023-05-09T15:55:36.726Z,1.80
2023-05-09T15:58:11.387Z,1.70
2023-05-09T16:00:45.453Z,2.00
2023-05-09T16:03:19.079Z,1.90
2023-05-09T16:05:52.893Z,1.70
2023-05-09T16:08:26.425Z,1.90
2023-05-09T16:11:01.833Z,2.10
2023-05-09T16:13:36.228Z,1.90
2023-05-09T16:16:10.663Z,1.90
2023-05-09T16:18:44.148Z,2.00
2023-05-09T16:21:18.138Z,2.00
2023-05-09T16:23:51.705Z,1.90
2023-05-09T16:26:25.218Z,1.90
2023-05-09T16:28:58.661Z,1.80
2023-05-09T16:31:35.358Z,1.80
2023-05-09T16:34:09.299Z,2.10
2023-05-09T16:36:44.193Z,2.20
2023-05-09T16:39:17.626Z,2.20
2023-05-09T16:41:51.173Z,1.80
2023-05-09T16:44:25.401Z,1.90
2023-05-09T16:46:58.752Z,2.10
2023-05-09T16:49:33.426Z,1.90
2023-05-09T16:52:07.309Z,1.90
2023-05-09T16:54:42.011Z,1.90
2023-05-09T16:57:15.507Z,1.90
2023-05-09T16:59:48.959Z,1.70
2023-05-09T17:02:22.760Z,1.90
2023-05-09T17:04:56.376Z,1.90
2023-05-09T17:07:30.127Z,1.80
2023-05-09T17:10:04.903Z,1.90
2023-05-09T17:12:39.508Z,1.90
2023-05-09T17:15:15.377Z,2.10
2023-05-09T17:17:49.166Z,2.00
2023-05-09T17:20:22.966Z,2.00
2023-05-09T17:22:56.402Z,1.80
2023-05-09T17:25:29.918Z,2.20
2023-05-09T17:28:03.675Z,1.90
2023-05-09T17:30:37.534Z,1.80
2023-05-09T17:33:11.403Z,1.60
2023-05-09T17:35:44.799Z,1.90
2023-05-09T17:38:18.198Z,1.90
2023-05-09T17:40:52.003Z,1.90
2023-05-09T17:43:27.780Z,2.00
2023-05-09T17:46:02.932Z,1.90
2023-05-09T17:48:37.616Z,2.00
2023-05-09T17:51:13.744Z,2.10
2023-05-09T17:53:49.584Z,2.00
2023-05-09T17:56:25.538Z,2.10
2023-05-09T17:58:59.878Z,2.00
2023-05-09T18:01:33.501Z,2.30
2023-05-09T18:04:08.038Z,2.20
2023-05-09T18:06:41.684Z,2.20
2023-05-09T18:09:15.361Z,2.30
2023-05-09T18:11:48.905Z,2.30
2023-05-09T18:14:22.491Z,2.20
2023-05-09T18:16:56.843Z,2.30
2023-05-09T18:19:30.798Z,2.50
2023-05-09T18:22:07.324Z,2.60
2023-05-09T18:24:41.074Z,2.30
2023-05-09T18:27:17.602Z,2.70
2023-05-09T18:29:51.249Z,2.50
2023-05-09T18:32:26.363Z,2.80
2023-05-09T18:35:00.409Z,2.60
2023-05-09T18:37:34.745Z,2.50
2023-05-09T18:40:15.333Z,2.30
2023-05-09T18:42:49.866Z,2.40
2023-05-09T18:45:23.973Z,2.40
2023-05-09T18:47:58.071Z,2.50
2023-05-09T18:50:32.150Z,2.30
2023-05-09T18:53:05.975Z,2.60
2023-05-09T18:55:43.247Z,2.60
2023-05-09T18:58:17.266Z,3.40
2023-05-09T19:00:53.298Z,3.30
2023-05-09T19:03:27.736Z,3.30
2023-05-09T19:06:02.881Z,3.70
2023-05-09T19:08:40.675Z,3.00
2023-05-09T19:11:14.843Z,3.80
2023-05-09T19:13:49.896Z,3.50
2023-05-09T19:16:26.730Z,3.20
2023-05-09T19:19:01.949Z,3.50
2023-05-09T19:21:36.826Z,3.60
2023-05-09T19:24:12.734Z,3.40
2023-05-09T19:26:47.869Z,3.40
2023-05-09T19:29:21.677Z,3.40
2023-05-09T19:31:56.661Z,3.80
2023-05-09T19:34:30.930Z,3.40
2023-05-09T19:37:05.353Z,3.50
2023-05-09T19:39:39.521Z,3.30
2023-05-09T19:42:13.227Z,3.20
2023-05-09T19:44:48.773Z,3.50
2023-05-09T19:47:23.943Z,3.20
2023-05-09T19:49:58.304Z,3.40
2023-05-09T19:52:32.512Z,3.60
2023-05-09T19:55:09.840Z,3.30
2023-05-09T19:57:44.829Z,3.20
2023-05-09T20:00:21.201Z,3.50
2023-05-09T20:02:55.209Z,3.30
2023-05-09T20:05:44.120Z,3.70
2023-05-09T20:08:19.771Z,3.10
2023-05-09T20:10:57.618Z,3.50
2023-05-09T20:13:31.368Z,3.50
2023-05-09T20:16:05.131Z,3.30
2023-05-09T20:18:40.211Z,3.20
2023-05-09T20:21:14.991Z,3.40
2023-05-09T20:23:52.686Z,3.50
2023-05-09T20:26:28.238Z,3.50
2023-05-09T20:29:03.563Z,3.40
2023-05-09T20:31:38.449Z,3.30
2023-05-09T20:34:16.163Z,3.50
2023-05-09T20:36:53.708Z,3.60
2023-05-09T20:39:29.670Z,3.80
2023-05-09T20:42:06.119Z,3.70
2023-05-09T20:44:42.283Z,3.90
2023-05-09T20:47:18.709Z,3.80
2023-05-09T20:49:52.361Z,3.50
2023-05-09T20:52:29.402Z,3.40
2023-05-09T20:55:03.352Z,3.60
2023-05-09T20:57:40.453Z,3.60
2023-05-09T21:00:16.636Z,3.70
2023-05-09T21:02:50.894Z,3.80
2023-05-09T21:05:26.888Z,3.50
2023-05-09T21:08:01.860Z,3.60
2023-05-09T21:10:38.130Z,3.70
2023-05-09T21:13:13.450Z,3.40
2023-05-09T21:15:51.388Z,3.30
2023-05-09T21:18:27.733Z,3.60
2023-05-09T21:21:03.547Z,3.40
2023-05-09T21:23:42.769Z,3.70
2023-05-09T21:26:19.052Z,3.70
2023-05-09T21:28:52.839Z,3.60
2023-05-09T21:31:26.710Z,3.50
2023-05-09T21:34:01.700Z,3.60
2023-05-09T21:36:36.528Z,3.40
2023-05-09T21:39:11.964Z,3.40
2023-05-09T21:41:45.816Z,3.50
2023-05-09T21:44:19.841Z,3.50
2023-05-09T21:46:53.711Z,3.60
2023-05-09T21:49:28.759Z,3.90
2023-05-09T21:52:02.693Z,3.30
2023-05-09T21:54:36.962Z,3.90
2023-05-09T21:57:14.444Z,3.90
2023-05-09T21:59:48.178Z,3.60
2023-05-09T22:02:23.329Z,3.70
2023-05-09T22:04:59.199Z,3.70
2023-05-09T22:07:34.285Z,3.50
2023-05-09T22:10:10.811Z,4.00
2023-05-09T22:12:44.740Z,3.50
2023-05-09T22:15:19.182Z,3.70
2023-05-09T22:17:53.026Z,3.60
2023-05-09T22:20:27.629Z,4.00
2023-05-09T22:23:01.328Z,4.00
2023-05-09T22:25:36.674Z,3.80
2023-05-09T22:28:13.090Z,3.80
2023-05-09T22:30:47.101Z,3.80
2023-05-09T22:33:23.629Z,4.00
2023-05-09T22:35:57.334Z,3.90
2023-05-09T22:38:31.542Z,3.80
2023-05-09T22:41:07.983Z,4.30
2023-05-09T22:43:43.973Z,4.00
2023-05-09T22:46:18.012Z,3.90
2023-05-09T22:48:53.174Z,3.70
2023-05-09T22:51:30.975Z,4.50
2023-05-09T22:54:10.255Z,4.30
2023-05-09T22:56:44.575Z,4.40
2023-05-09T22:59:21.158Z,4.70
2023-05-09T23:01:56.440Z,4.50
2023-05-09T23:04:30.144Z,3.90
2023-05-09T23:07:06.458Z,4.30
2023-05-09T23:09:40.945Z,4.60
2023-05-09T23:12:16.328Z,4.30
2023-05-09T23:14:50.700Z,4.50
2023-05-09T23:17:26.316Z,4.00
2023-05-09T23:20:00.870Z,4.00
2023-05-09T23:22:35.140Z,4.00
2023-05-09T23:25:11.265Z,4.20
2023-05-09T23:27:47.069Z,4.10
2023-05-09T23:30:24.397Z,4.30
2023-05-09T23:32:58.916Z,4.50
2023-05-09T23:35:33.199Z,4.00
2023-05-09T23:38:08.623Z,4.00
2023-05-09T23:40:42.515Z,4.30
2023-05-09T23:43:18.444Z,4.10
2023-05-09T23:45:54.146Z,4.10
2023-05-09T23:48:31.649Z,3.90
2023-05-09T23:51:08.934Z,3.90
2023-05-09T23:53:42.895Z,4.00
2023-05-09T23:56:16.905Z,4.10
2023-05-09T23:58:52.504Z,4.10
